createdAt,value
2023-01-17T00:01:47.924Z,99.99
2023-01-17T00:05:08.601Z,99.99
2023-01-17T00:08:31.401Z,99.99
2023-01-17T00:11:33.676Z,99.99
2023-01-17T00:14:35.898Z,99.99
2023-01-17T00:17:38.129Z,99.99
2023-01-17T00:21:18.919Z,99.99
2023-01-17T00:24:46.182Z,99.99
2023-01-17T00:27:48.413Z,99.99
2023-01-17T00:30:50.579Z,99.99
2023-01-17T00:33:52.809Z,99.99
2023-01-17T00:36:54.994Z,99.99
2023-01-17T00:39:57.167Z,99.99
2023-01-17T00:43:18.092Z,99.99
2023-01-17T00:46:39.377Z,99.99
2023-01-17T00:49:59.804Z,99.99
2023-01-17T00:53:23.775Z,99.99
2023-01-17T00:56:44.485Z,99.99
2023-01-17T01:00:05.731Z,99.99
2023-01-17T01:03:30.206Z,99.99
2023-01-17T01:06:55.204Z,99.99
2023-01-17T01:10:15.677Z,99.99
2023-01-17T01:13:36.765Z,99.99
2023-01-17T01:16:58.537Z,99.99
2023-01-17T01:20:19.425Z,99.99
2023-01-17T01:23:40.389Z,99.99
2023-01-17T01:27:03.192Z,99.99
2023-01-17T01:30:24.344Z,99.99
2023-01-17T01:33:26.567Z,99.99
2023-01-17T01:39:48.408Z,99.99
2023-01-17T01:42:56.007Z,99.99
2023-01-17T01:45:58.918Z,99.99
2023-01-17T01:49:02.576Z,99.99
2023-01-17T01:52:07.864Z,99.99
2023-01-17T01:55:24.290Z,99.95
2023-01-17T01:58:32.104Z,99.99
2023-01-17T02:01:34.567Z,99.64
2023-01-17T02:04:37.575Z,99.68
2023-01-17T02:07:51.011Z,99.61
2023-01-17T02:10:53.389Z,99.84
2023-01-17T02:13:55.674Z,99.99
2023-01-17T02:17:11.392Z,99.99
2023-01-17T02:20:41.481Z,99.99
2023-01-17T02:23:58.805Z,99.99
2023-01-17T02:27:27.996Z,99.99
2023-01-17T02:30:36.156Z,99.99
2023-01-17T02:33:42.765Z,99.99
2023-01-17T02:36:55.407Z,99.99
2023-01-17T02:40:10.136Z,99.99
2023-01-17T02:43:15.764Z,99.99
2023-01-17T02:46:18.461Z,99.99
2023-01-17T02:49:26.588Z,99.99
2023-01-17T02:52:43.974Z,99.99
2023-01-17T02:55:58.306Z,99.99
2023-01-17T02:59:14.710Z,99.99
2023-01-17T03:02:35.315Z,99.99
2023-01-17T03:05:49.435Z,99.99
2023-01-17T03:08:52.929Z,99.99
2023-01-17T03:11:55.234Z,99.99
2023-01-17T03:14:57.766Z,99.99
2023-01-17T03:18:05.848Z,99.99
2023-01-17T03:21:08.950Z,99.99
2023-01-17T03:24:11.155Z,99.99
2023-01-17T03:27:13.512Z,99.89
2023-01-17T03:30:16.161Z,99.85
2023-01-17T03:33:18.614Z,99.73
2023-01-17T03:36:20.952Z,99.77
2023-01-17T03:39:23.234Z,99.74
2023-01-17T03:42:25.464Z,99.36
2023-01-17T03:45:27.763Z,99.45
2023-01-17T03:48:30.296Z,99.57
2023-01-17T03:51:32.543Z,99.22
2023-01-17T03:54:34.789Z,99.27
2023-01-17T03:57:37.079Z,99.53
2023-01-17T04:00:39.673Z,99.44
2023-01-17T04:03:42.023Z,99.75
2023-01-17T04:06:44.523Z,99.99
2023-01-17T04:09:46.745Z,99.98
2023-01-17T04:12:49.047Z,99.92
2023-01-17T04:15:51.840Z,99.97
2023-01-17T04:18:54.121Z,99.99
2023-01-17T04:21:56.410Z,99.99
2023-01-17T04:24:59.293Z,99.99
2023-01-17T04:28:03.626Z,99.99
2023-01-17T04:31:06.371Z,99.99
2023-01-17T04:34:08.693Z,99.99
2023-01-17T04:37:11.057Z,99.99
2023-01-17T04:40:14.089Z,99.99
2023-01-17T04:43:17.627Z,99.99
2023-01-17T04:46:19.938Z,99.99
2023-01-17T04:49:22.157Z,99.99
2023-01-17T04:52:25.475Z,99.99
2023-01-17T04:55:31.191Z,99.99
2023-01-17T04:58:33.605Z,99.99
2023-01-17T05:01:35.916Z,99.99
2023-01-17T05:04:38.513Z,99.99
2023-01-17T05:07:40.769Z,99.99
2023-01-17T05:10:46.265Z,99.99
2023-01-17T05:13:49.160Z,99.99
2023-01-17T05:16:58.846Z,99.99
2023-01-17T05:20:01.061Z,99.99
2023-01-17T05:23:03.444Z,99.99
2023-01-17T05:26:05.841Z,99.99
2023-01-17T05:29:08.155Z,99.99
2023-01-17T05:32:10.432Z,99.99
2023-01-17T05:35:12.812Z,99.99
2023-01-17T05:38:15.104Z,99.99
2023-01-17T05:41:17.428Z,99.99
2023-01-17T05:44:19.632Z,99.99
2023-01-17T05:47:21.922Z,99.99
2023-01-17T05:50:26.720Z,99.99
2023-01-17T05:53:29.017Z,99.99
2023-01-17T05:56:31.213Z,99.99
2023-01-17T05:59:37.415Z,99.99
2023-01-17T06:02:40.241Z,99.99
2023-01-17T06:05:43.314Z,99.99
2023-01-17T06:08:45.528Z,99.99
2023-01-17T06:11:47.832Z,99.99
2023-01-17T06:14:50.074Z,99.99
2023-01-17T06:17:52.469Z,99.99
2023-01-17T06:20:55.205Z,99.99
2023-01-17T06:23:57.468Z,99.99
2023-01-17T06:27:02.562Z,99.99
2023-01-17T06:30:05.352Z,99.99
2023-01-17T06:33:07.661Z,99.99
2023-01-17T06:36:09.995Z,99.99
2023-01-17T06:39:14.942Z,99.99
2023-01-17T06:42:17.496Z,99.99
2023-01-17T06:45:20.802Z,99.99
2023-01-17T06:48:25.024Z,99.99
2023-01-17T06:51:27.986Z,99.99
2023-01-17T06:54:34.140Z,99.99
2023-01-17T06:57:36.419Z,99.99
2023-01-17T07:00:48.881Z,99.99
2023-01-17T07:03:52.559Z,99.99
2023-01-17T07:06:57.454Z,99.99
2023-01-17T07:10:01.258Z,99.99
2023-01-17T07:13:16.011Z,99.99
2023-01-17T07:16:25.077Z,99.99
2023-01-17T07:19:31.487Z,99.63
2023-01-17T07:22:38.281Z,98.86
2023-01-17T07:25:49.293Z,98.76
2023-01-17T07:28:55.235Z,98.18
2023-01-17T07:32:02.170Z,98.19
2023-01-17T07:35:08.941Z,97.62
2023-01-17T07:38:24.482Z,97.64
2023-01-17T07:41:41.822Z,97.28
2023-01-17T07:44:45.310Z,97.11
2023-01-17T07:47:48.854Z,96.87
2023-01-17T07:50:53.331Z,96.24
2023-01-17T07:53:55.872Z,94.65
2023-01-17T07:56:58.483Z,93.84
2023-01-17T08:00:04.880Z,93.74
2023-01-17T08:03:16.901Z,92.78
2023-01-17T08:06:22.190Z,93.20
2023-01-17T08:09:24.589Z,91.22
2023-01-17T08:12:27.661Z,91.88
2023-01-17T08:15:32.414Z,92.63
2023-01-17T08:18:35.000Z,89.06
2023-01-17T08:21:40.978Z,83.22
2023-01-17T08:24:47.269Z,78.50
2023-01-17T08:27:49.944Z,75.59
2023-01-17T08:30:52.385Z,73.03
2023-01-17T08:33:55.307Z,71.83
2023-01-17T08:36:57.795Z,70.15
2023-01-17T08:40:00.222Z,72.62
2023-01-17T08:43:03.946Z,73.90
2023-01-17T08:46:06.590Z,74.41
2023-01-17T08:49:12.237Z,70.41
2023-01-17T08:52:15.691Z,67.49
2023-01-17T08:55:21.067Z,62.78
2023-01-17T08:58:24.058Z,60.71
2023-01-17T09:01:27.649Z,60.68
2023-01-17T09:04:35.200Z,59.82
2023-01-17T09:07:42.466Z,55.69
2023-01-17T09:10:46.372Z,57.27
2023-01-17T09:13:55.416Z,59.84
2023-01-17T09:16:58.203Z,65.05
2023-01-17T09:20:00.609Z,67.56
2023-01-17T09:23:06.443Z,70.46
2023-01-17T09:26:19.164Z,71.54
2023-01-17T09:29:26.780Z,71.68
2023-01-17T09:32:29.488Z,70.16
2023-01-17T09:35:34.546Z,71.14
2023-01-17T09:38:37.681Z,71.59
2023-01-17T09:41:54.893Z,71.87
2023-01-17T09:44:59.486Z,71.26
2023-01-17T09:48:07.625Z,71.16
2023-01-17T09:51:18.458Z,72.23
2023-01-17T09:54:29.259Z,70.70
2023-01-17T09:57:40.656Z,69.41
2023-01-17T10:00:59.006Z,69.28
2023-01-17T10:04:32.233Z,68.25
2023-01-17T10:07:58.871Z,68.51
2023-01-17T10:11:10.045Z,64.44
2023-01-17T10:14:43.049Z,64.16
2023-01-17T10:18:06.365Z,62.60
2023-01-17T10:21:11.526Z,61.77
2023-01-17T10:24:38.626Z,65.73
2023-01-17T10:27:48.063Z,64.70
2023-01-17T10:30:51.873Z,65.10
2023-01-17T10:34:07.046Z,62.10
2023-01-17T10:37:22.801Z,65.27
2023-01-17T10:41:00.409Z,62.40
2023-01-17T10:44:27.106Z,62.33
2023-01-17T10:47:33.188Z,63.43
2023-01-17T10:50:53.992Z,63.30
2023-01-17T10:54:07.966Z,65.01
2023-01-17T10:57:19.029Z,66.32
2023-01-17T11:00:40.909Z,66.08
2023-01-17T11:03:45.663Z,68.08
2023-01-17T11:07:22.069Z,67.47
2023-01-17T11:10:36.884Z,69.12
2023-01-17T11:13:39.175Z,69.50
2023-01-17T11:16:41.645Z,69.69
2023-01-17T11:19:47.542Z,68.44
2023-01-17T11:23:17.429Z,71.08
2023-01-17T11:26:31.266Z,70.57
2023-01-17T11:29:39.157Z,68.45
2023-01-17T11:32:53.107Z,68.41
2023-01-17T11:35:55.701Z,66.23
2023-01-17T11:39:18.592Z,68.68
2023-01-17T11:42:36.012Z,69.08
2023-01-17T11:45:39.813Z,69.83
2023-01-17T11:48:48.524Z,71.33
2023-01-17T11:52:01.875Z,71.74
2023-01-17T11:55:13.563Z,73.36
2023-01-17T11:58:16.306Z,72.75
2023-01-17T12:01:21.292Z,72.28
2023-01-17T12:04:49.067Z,73.49
2023-01-17T12:07:54.228Z,74.51
2023-01-17T12:11:16.750Z,75.92
2023-01-17T12:14:31.093Z,76.56
2023-01-17T12:18:14.388Z,77.20
2023-01-17T12:21:27.594Z,77.23
2023-01-17T12:24:38.688Z,77.19
2023-01-17T12:28:11.406Z,77.53
2023-01-17T12:31:43.485Z,77.74
2023-01-17T12:34:53.554Z,78.38
2023-01-17T12:38:05.850Z,78.61
2023-01-17T12:41:26.583Z,78.17
2023-01-17T12:44:52.118Z,78.75
2023-01-17T12:48:01.582Z,78.60
2023-01-17T12:51:33.363Z,79.39
2023-01-17T12:54:44.776Z,79.50
2023-01-17T12:57:55.992Z,79.55
2023-01-17T13:01:32.452Z,80.27
2023-01-17T13:04:57.748Z,80.15
2023-01-17T13:08:23.027Z,81.11
2023-01-17T13:11:33.582Z,79.51
2023-01-17T13:14:36.104Z,80.31
2023-01-17T13:17:47.201Z,80.38
2023-01-17T13:21:07.384Z,81.94
2023-01-17T13:24:33.058Z,82.21
2023-01-17T13:28:10.193Z,82.52
2023-01-17T13:31:46.331Z,82.66
2023-01-17T13:35:01.743Z,83.42
2023-01-17T13:38:22.723Z,83.48
2023-01-17T13:41:33.905Z,84.18
2023-01-17T13:44:36.515Z,84.12
2023-01-17T13:47:40.671Z,83.90
2023-01-17T13:50:49.472Z,84.33
2023-01-17T13:53:55.044Z,84.87
2023-01-17T13:57:42.039Z,85.34
2023-01-17T14:00:44.412Z,87.98
2023-01-17T14:03:48.540Z,88.60
2023-01-17T14:06:55.477Z,89.86
2023-01-17T14:09:57.795Z,91.23
2023-01-17T14:13:03.952Z,91.34
2023-01-17T14:16:27.624Z,92.98
2023-01-17T14:19:29.882Z,92.82
2023-01-17T14:22:36.387Z,93.42
2023-01-17T14:25:40.575Z,93.13
2023-01-17T14:28:42.899Z,93.57
2023-01-17T14:31:45.399Z,93.83
2023-01-17T14:34:50.561Z,94.44
2023-01-17T14:37:54.097Z,94.12
2023-01-17T14:41:01.177Z,94.54
2023-01-17T14:44:04.025Z,95.03
2023-01-17T14:47:06.392Z,94.99
2023-01-17T14:50:25.240Z,95.08
2023-01-17T14:53:29.811Z,95.75
2023-01-17T14:56:32.801Z,95.64
2023-01-17T14:59:35.023Z,95.90
2023-01-17T15:02:42.319Z,96.01
2023-01-17T15:05:49.674Z,96.76
2023-01-17T15:08:54.111Z,97.19
2023-01-17T15:11:57.648Z,97.13
2023-01-17T15:15:01.676Z,97.54
2023-01-17T15:18:18.397Z,97.48
2023-01-17T15:21:23.556Z,97.26
2023-01-17T15:24:28.837Z,97.23
2023-01-17T15:27:32.059Z,97.68
2023-01-17T15:30:34.523Z,97.87
2023-01-17T15:33:42.389Z,98.00
2023-01-17T15:36:48.911Z,98.03
2023-01-17T15:39:51.350Z,97.97
2023-01-17T15:42:59.081Z,98.50
2023-01-17T15:46:03.389Z,98.48
2023-01-17T15:49:22.314Z,98.48
2023-01-17T15:52:24.505Z,98.59
2023-01-17T15:55:32.739Z,99.16
2023-01-17T15:58:35.055Z,99.09
2023-01-17T16:01:37.600Z,98.88
2023-01-17T16:04:42.335Z,98.81
2023-01-17T16:07:44.593Z,98.75
2023-01-17T16:10:46.798Z,98.68
2023-01-17T16:13:49.432Z,98.96
2023-01-17T16:16:52.586Z,98.96
2023-01-17T16:19:54.875Z,99.12
2023-01-17T16:22:57.219Z,98.94
2023-01-17T16:25:59.479Z,99.11
2023-01-17T16:29:01.656Z,98.86
2023-01-17T16:32:08.780Z,99.05
2023-01-17T16:35:21.404Z,98.92
2023-01-17T16:38:23.721Z,98.90
2023-01-17T16:41:25.969Z,98.74
2023-01-17T16:44:31.449Z,98.35
2023-01-17T16:47:33.670Z,98.27
2023-01-17T16:50:41.185Z,98.22
2023-01-17T16:53:43.404Z,98.25
2023-01-17T16:56:45.671Z,98.19
2023-01-17T16:59:50.813Z,98.08
2023-01-17T17:02:54.036Z,98.49
2023-01-17T17:05:59.244Z,97.69
2023-01-17T17:09:01.912Z,97.79
2023-01-17T17:12:05.432Z,98.13
2023-01-17T17:15:08.766Z,98.27
2023-01-17T17:18:16.883Z,98.30
2023-01-17T17:21:19.151Z,98.35
2023-01-17T17:24:21.365Z,98.62
2023-01-17T17:27:26.527Z,98.65
2023-01-17T17:30:28.743Z,98.55
2023-01-17T17:33:31.175Z,99.06
2023-01-17T17:36:34.888Z,98.94
2023-01-17T17:39:37.113Z,98.44
2023-01-17T17:42:39.313Z,98.16
2023-01-17T17:45:41.544Z,97.75
2023-01-17T17:48:43.783Z,97.80
2023-01-17T17:51:46.162Z,98.09
2023-01-17T17:54:49.058Z,97.65
2023-01-17T17:57:51.423Z,97.71
2023-01-17T18:00:53.808Z,97.40
2023-01-17T18:04:00.496Z,97.74
2023-01-17T18:07:05.611Z,97.61
2023-01-17T18:10:08.575Z,97.03
2023-01-17T18:13:10.880Z,96.54
2023-01-17T18:16:15.867Z,96.57
2023-01-17T18:19:23.209Z,96.36
2023-01-17T18:22:25.506Z,95.92
2023-01-17T18:25:27.665Z,95.46
2023-01-17T18:28:29.973Z,95.18
2023-01-17T18:31:32.260Z,95.35
2023-01-17T18:34:35.794Z,94.81
2023-01-17T18:37:38.091Z,94.94
2023-01-17T18:40:40.339Z,94.86
2023-01-17T18:43:42.697Z,95.25
2023-01-17T18:46:45.166Z,94.72
2023-01-17T18:49:47.388Z,94.35
2023-01-17T18:52:49.741Z,93.79
2023-01-17T18:55:56.223Z,93.81
2023-01-17T18:58:59.369Z,93.08
2023-01-17T19:02:02.936Z,92.72
2023-01-17T19:05:08.510Z,91.96
2023-01-17T19:08:10.726Z,91.78
2023-01-17T19:11:13.046Z,92.07
2023-01-17T19:14:15.804Z,92.05
2023-01-17T19:17:18.941Z,90.79
2023-01-17T19:20:21.149Z,91.09
2023-01-17T19:23:23.357Z,90.72
2023-01-17T19:26:27.435Z,90.43
2023-01-17T19:29:29.786Z,90.50
2023-01-17T19:32:31.947Z,90.42
2023-01-17T19:35:37.489Z,90.43
2023-01-17T19:38:40.298Z,90.26
2023-01-17T19:41:45.066Z,90.42
2023-01-17T19:44:47.407Z,90.33
2023-01-17T19:47:49.644Z,89.97
2023-01-17T19:50:52.281Z,89.68
2023-01-17T19:53:55.089Z,89.83
2023-01-17T19:56:57.257Z,89.89
2023-01-17T19:59:59.461Z,89.95
2023-01-17T20:03:02.373Z,90.15
2023-01-17T20:06:06.315Z,90.42
2023-01-17T20:09:08.707Z,91.02
2023-01-17T20:12:11.117Z,91.27
2023-01-17T20:15:13.324Z,92.31
2023-01-17T20:18:15.688Z,92.07
2023-01-17T20:21:24.088Z,91.44
2023-01-17T20:24:26.486Z,90.77
2023-01-17T20:27:28.685Z,89.72
2023-01-17T20:30:32.984Z,89.67
2023-01-17T20:33:39.191Z,89.72
2023-01-17T20:36:42.228Z,89.70
2023-01-17T20:39:44.552Z,89.57
2023-01-17T20:42:46.802Z,89.52
2023-01-17T20:45:56.092Z,90.07
2023-01-17T20:49:00.590Z,90.19
2023-01-17T20:52:04.639Z,90.34
2023-01-17T20:55:09.241Z,90.33
2023-01-17T20:58:11.405Z,89.83
2023-01-17T21:01:19.794Z,89.36
2023-01-17T21:04:25.884Z,88.61
2023-01-17T21:07:28.187Z,88.28
2023-01-17T21:10:30.500Z,87.80
2023-01-17T21:13:33.090Z,87.89
2023-01-17T21:16:35.446Z,88.24
2023-01-17T21:19:37.830Z,88.60
2023-01-17T21:22:41.100Z,88.95
2023-01-17T21:26:07.591Z,89.39
2023-01-17T21:29:09.932Z,90.04
2023-01-17T21:32:12.182Z,90.74
2023-01-17T21:35:14.392Z,90.45
2023-01-17T21:38:16.718Z,89.98
2023-01-17T21:41:20.688Z,89.68
2023-01-17T21:44:23.316Z,89.31
2023-01-17T21:47:32.326Z,89.29
2023-01-17T21:50:34.670Z,89.48
2023-01-17T21:53:39.356Z,89.51
2023-01-17T21:57:00.035Z,89.95
2023-01-17T22:00:03.779Z,90.29
2023-01-17T22:03:13.699Z,90.30
2023-01-17T22:06:16.205Z,90.58
2023-01-17T22:09:18.530Z,90.69
2023-01-17T22:12:20.686Z,90.83
2023-01-17T22:15:23.428Z,91.05
2023-01-17T22:18:25.678Z,91.09
2023-01-17T22:21:28.989Z,91.19
2023-01-17T22:24:31.325Z,91.35
2023-01-17T22:27:33.559Z,91.73
2023-01-17T22:30:35.757Z,91.85
2023-01-17T22:33:39.329Z,92.23
2023-01-17T22:36:42.484Z,92.46
2023-01-17T22:39:44.823Z,92.86
2023-01-17T22:42:47.070Z,93.52
2023-01-17T22:45:49.320Z,93.83
2023-01-17T22:48:52.724Z,94.13
2023-01-17T22:51:55.016Z,94.24
2023-01-17T22:54:57.241Z,94.42
2023-01-17T22:57:59.495Z,94.77
2023-01-17T23:01:13.762Z,94.94
2023-01-17T23:04:18.862Z,95.14
2023-01-17T23:07:27.045Z,95.07
2023-01-17T23:10:47.580Z,95.49
2023-01-17T23:13:49.820Z,95.52
2023-01-17T23:17:14.347Z,95.77
2023-01-17T23:20:16.593Z,95.64
2023-01-17T23:23:18.906Z,95.90
2023-01-17T23:26:21.071Z,96.01
2023-01-17T23:29:23.292Z,96.13
2023-01-17T23:32:26.540Z,96.52
2023-01-17T23:35:32.192Z,96.59
2023-01-17T23:38:37.673Z,96.55
2023-01-17T23:41:58.222Z,96.77
2023-01-17T23:45:00.660Z,96.94
2023-01-17T23:48:05.681Z,97.04
2023-01-17T23:51:10.862Z,97.03
2023-01-17T23:54:13.192Z,97.20
2023-01-17T23:57:15.440Z,97.16
